createdAt,value
2022-09-23T00:00:49.137Z,0.20
2022-09-23T00:01:52.187Z,0.20
2022-09-23T00:02:54.222Z,0.20
2022-09-23T00:03:59.746Z,0.20
2022-09-23T00:05:01.804Z,0.20
2022-09-23T00:06:07.931Z,0.30
2022-09-23T00:07:11.318Z,0.25
2022-09-23T00:08:14.366Z,0.20
2022-09-23T00:09:16.326Z,0.25
2022-09-23T00:10:19.596Z,0.25
2022-09-23T00:11:24.181Z,0.20
2022-09-23T00:12:27.244Z,0.20
2022-09-23T00:13:29.237Z,0.10
2022-09-23T00:14:32.560Z,0.17
2022-09-23T00:15:39.027Z,0.10
2022-09-23T00:16:42.080Z,0.30
2022-09-23T00:17:44.125Z,0.30
2022-09-23T00:18:47.038Z,0.22
2022-09-23T00:19:49.228Z,0.30
2022-09-23T00:20:52.899Z,0.20
2022-09-23T00:21:56.399Z,0.20
2022-09-23T00:23:01.378Z,0.20
2022-09-23T00:24:03.380Z,0.30
2022-09-23T00:25:07.876Z,0.20
2022-09-23T00:26:11.405Z,0.30
2022-09-23T00:27:14.554Z,0.30
2022-09-23T00:28:16.878Z,0.20
2022-09-23T00:29:19.769Z,0.20
2022-09-23T00:30:23.625Z,0.30
2022-09-23T00:31:28.197Z,0.30
2022-09-23T00:32:30.101Z,0.30
2022-09-23T00:33:33.516Z,0.20
2022-09-23T00:34:35.967Z,0.20
2022-09-23T00:35:41.558Z,0.20
2022-09-23T00:36:43.939Z,0.20
2022-09-23T00:37:47.123Z,0.20
2022-09-23T00:38:51.021Z,0.28
2022-09-23T00:39:54.436Z,0.20
2022-09-23T00:40:56.904Z,0.25
2022-09-23T00:42:00.225Z,0.25
2022-09-23T00:43:02.537Z,0.20
2022-09-23T00:44:38.918Z,0.25
2022-09-23T00:45:41.890Z,0.20
2022-09-23T00:46:45.359Z,0.10
2022-09-23T00:47:51.340Z,0.20
2022-09-23T00:49:00.699Z,0.10
2022-09-23T00:50:09.341Z,0.20
2022-09-23T00:51:18.048Z,0.20
2022-09-23T00:52:23.741Z,0.20
2022-09-23T00:53:28.051Z,0.20
2022-09-23T00:54:34.469Z,0.17
2022-09-23T00:55:42.313Z,0.20
2022-09-23T00:56:45.006Z,0.30
2022-09-23T00:57:49.076Z,0.20
2022-09-23T00:58:53.121Z,0.20
2022-09-23T00:59:58.140Z,0.10
2022-09-23T01:01:01.709Z,0.20
2022-09-23T01:02:07.220Z,0.20
2022-09-23T01:03:11.993Z,0.20
2022-09-23T01:05:17.092Z,0.20
2022-09-23T01:06:20.427Z,0.20
2022-09-23T01:07:22.281Z,0.10
2022-09-23T01:08:26.760Z,0.20
2022-09-23T01:09:28.704Z,0.30
2022-09-23T01:10:43.035Z,0.10
2022-09-23T01:11:51.784Z,0.28
2022-09-23T01:13:07.066Z,0.20
2022-09-23T01:14:28.076Z,0.22
2022-09-23T01:15:40.529Z,0.13
2022-09-23T01:16:49.267Z,0.20
2022-09-23T01:18:00.456Z,0.10
2022-09-23T01:19:24.477Z,0.20
2022-09-23T01:20:56.026Z,0.20
2022-09-23T01:22:05.899Z,0.28
2022-09-23T01:23:22.327Z,0.20
2022-09-23T01:24:45.894Z,0.20
2022-09-23T01:26:04.749Z,0.20
2022-09-23T01:27:24.069Z,0.10
2022-09-23T01:28:50.419Z,0.20
2022-09-23T01:30:16.655Z,0.20
2022-09-23T01:31:24.338Z,0.20
2022-09-23T01:32:39.269Z,0.20
2022-09-23T01:33:53.165Z,0.17
2022-09-23T01:35:02.090Z,0.25
2022-09-23T01:36:18.989Z,0.20
2022-09-23T01:37:28.717Z,0.20
2022-09-23T01:38:41.410Z,0.20
2022-09-23T01:39:52.845Z,0.20
2022-09-23T01:41:04.568Z,0.20
2022-09-23T01:42:17.240Z,0.20
2022-09-23T01:43:26.709Z,0.20
2022-09-23T01:44:34.971Z,0.20
2022-09-23T01:45:48.147Z,0.20
2022-09-23T01:46:54.987Z,0.10
2022-09-23T01:48:04.011Z,0.20
2022-09-23T01:49:12.964Z,0.20
2022-09-23T01:50:34.430Z,0.20
2022-09-23T01:51:41.670Z,0.20
2022-09-23T01:52:47.494Z,0.20
2022-09-23T01:53:56.207Z,0.20
2022-09-23T01:55:06.566Z,0.20
2022-09-23T01:56:21.973Z,0.15
2022-09-23T01:57:31.842Z,0.20
2022-09-23T01:58:42.388Z,0.20
2022-09-23T01:59:49.444Z,0.20
2022-09-23T02:00:58.347Z,0.20
2022-09-23T02:02:05.609Z,0.15
2022-09-23T02:03:15.218Z,0.30
2022-09-23T02:04:22.488Z,0.30
2022-09-23T02:05:30.803Z,0.30
2022-09-23T02:06:37.133Z,0.20
2022-09-23T02:07:48.192Z,0.20
2022-09-23T02:08:56.624Z,0.20
2022-09-23T02:10:06.978Z,0.30
2022-09-23T02:12:21.142Z,0.30
2022-09-23T02:13:29.907Z,0.22
2022-09-23T02:14:39.536Z,0.20
2022-09-23T02:15:47.797Z,0.30
2022-09-23T02:16:53.212Z,0.20
2022-09-23T02:18:02.004Z,0.30
2022-09-23T02:19:11.520Z,0.25
2022-09-23T02:20:20.559Z,0.20
2022-09-23T02:21:28.775Z,0.20
2022-09-23T02:22:39.082Z,0.20
2022-09-23T02:24:48.131Z,0.20
2022-09-23T02:25:58.078Z,0.20
2022-09-23T02:27:12.010Z,0.20
2022-09-23T02:28:19.023Z,0.20
2022-09-23T02:29:26.894Z,0.20
2022-09-23T02:30:32.186Z,0.30
2022-09-23T02:31:40.219Z,0.30
2022-09-23T02:32:50.213Z,0.30
2022-09-23T02:33:59.048Z,0.30
2022-09-23T02:35:10.163Z,0.20
2022-09-23T02:36:25.681Z,0.20
2022-09-23T02:37:37.117Z,0.20
2022-09-23T02:38:45.604Z,0.20
2022-09-23T02:39:58.926Z,0.20
2022-09-23T02:41:09.383Z,0.20
2022-09-23T02:43:22.954Z,0.20
2022-09-23T02:44:25.428Z,0.20
2022-09-23T02:45:30.277Z,0.20
2022-09-23T02:46:34.221Z,0.20
2022-09-23T02:47:44.080Z,0.30
2022-09-23T02:48:51.528Z,0.20
2022-09-23T02:49:56.342Z,0.13
2022-09-23T02:50:59.129Z,0.20
2022-09-23T02:52:05.552Z,0.10
2022-09-23T02:53:09.024Z,0.30
2022-09-23T02:54:16.677Z,0.20
2022-09-23T02:55:23.456Z,0.20
2022-09-23T02:56:25.624Z,0.10
2022-09-23T02:57:28.576Z,0.20
2022-09-23T02:58:30.894Z,0.20
2022-09-23T02:59:37.274Z,0.30
2022-09-23T03:01:05.415Z,0.22
2022-09-23T03:02:26.897Z,0.20
2022-09-23T03:03:43.181Z,0.10
2022-09-23T03:04:58.464Z,0.20
2022-09-23T03:06:13.346Z,0.10
2022-09-23T03:07:19.413Z,0.13
2022-09-23T03:08:36.790Z,0.20
2022-09-23T03:09:46.645Z,0.20
2022-09-23T03:10:57.710Z,0.20
2022-09-23T03:12:11.807Z,0.20
2022-09-23T03:13:18.033Z,0.20
2022-09-23T03:14:31.264Z,0.20
2022-09-23T03:15:38.716Z,0.20
2022-09-23T03:16:44.885Z,0.20
2022-09-23T03:17:54.710Z,0.20
2022-09-23T03:19:07.103Z,0.20
2022-09-23T03:20:15.459Z,0.20
2022-09-23T03:21:26.287Z,0.20
2022-09-23T03:22:31.272Z,0.30
2022-09-23T03:23:37.027Z,0.20
2022-09-23T03:24:44.779Z,0.20
2022-09-23T03:25:51.576Z,0.20
2022-09-23T03:26:55.602Z,0.30
2022-09-23T03:28:00.959Z,0.25
2022-09-23T03:29:05.664Z,0.20
2022-09-23T03:30:10.004Z,0.22
2022-09-23T03:31:13.250Z,0.20
2022-09-23T03:32:18.298Z,0.30
2022-09-23T03:33:28.510Z,0.30
2022-09-23T03:34:36.529Z,0.20
2022-09-23T03:36:00.068Z,0.30
2022-09-23T03:37:12.127Z,0.20
2022-09-23T03:38:17.241Z,0.20
2022-09-23T03:39:29.452Z,0.20
2022-09-23T03:40:36.678Z,0.20
2022-09-23T03:41:45.159Z,0.20
2022-09-23T03:42:48.987Z,0.25
2022-09-23T03:43:53.274Z,0.30
2022-09-23T03:44:57.516Z,0.30
2022-09-23T03:46:01.340Z,0.20
2022-09-23T03:47:04.843Z,0.20
2022-09-23T03:48:07.157Z,0.30
2022-09-23T03:49:16.500Z,0.20
2022-09-23T03:50:20.887Z,0.25
2022-09-23T03:51:23.985Z,0.20
2022-09-23T03:52:28.712Z,0.20
2022-09-23T03:53:30.712Z,0.30
2022-09-23T03:54:33.964Z,0.35
2022-09-23T03:55:39.277Z,0.32
2022-09-23T03:56:42.384Z,0.30
2022-09-23T03:57:45.088Z,0.40
2022-09-23T03:58:48.858Z,0.30
2022-09-23T03:59:51.565Z,0.40
2022-09-23T04:00:54.743Z,0.30
2022-09-23T04:01:59.544Z,0.30
2022-09-23T04:03:02.669Z,0.30
2022-09-23T04:04:04.542Z,0.30
2022-09-23T04:05:08.833Z,0.30
2022-09-23T04:06:10.730Z,0.30
2022-09-23T04:07:14.909Z,0.30
2022-09-23T04:08:18.185Z,0.30
2022-09-23T04:09:21.145Z,0.20
2022-09-23T04:10:23.310Z,0.30
2022-09-23T04:11:26.188Z,0.30
2022-09-23T04:12:28.134Z,0.38
2022-09-23T04:13:31.530Z,0.30
2022-09-23T04:14:33.602Z,0.28
2022-09-23T04:15:36.448Z,0.20
2022-09-23T04:16:38.463Z,0.30
2022-09-23T04:17:41.856Z,0.20
2022-09-23T04:18:43.763Z,0.20
2022-09-23T04:19:46.753Z,0.20
2022-09-23T04:20:48.971Z,0.20
2022-09-23T04:21:51.837Z,0.30
2022-09-23T04:22:53.770Z,0.32
2022-09-23T04:23:58.181Z,0.30
2022-09-23T04:25:00.035Z,0.30
2022-09-23T04:26:02.880Z,0.30
2022-09-23T04:27:05.017Z,0.30
2022-09-23T04:28:07.870Z,0.30
2022-09-23T04:29:11.793Z,0.30
2022-09-23T04:30:14.032Z,0.30
2022-09-23T04:31:17.160Z,0.20
2022-09-23T04:32:19.183Z,0.30
2022-09-23T04:33:22.285Z,0.30
2022-09-23T04:34:25.208Z,0.30
2022-09-23T04:35:27.128Z,0.30
2022-09-23T04:36:30.338Z,0.30
2022-09-23T04:37:32.223Z,0.20
2022-09-23T04:38:35.693Z,0.30
2022-09-23T04:39:38.976Z,0.30
2022-09-23T04:40:41.954Z,0.20
2022-09-23T04:41:45.422Z,0.30
2022-09-23T04:42:48.781Z,0.30
2022-09-23T04:43:50.648Z,0.25
2022-09-23T04:44:53.499Z,0.20
2022-09-23T04:45:59.871Z,0.30
2022-09-23T04:47:04.275Z,0.30
2022-09-23T04:48:06.332Z,0.30
2022-09-23T04:49:09.356Z,0.25
2022-09-23T04:50:11.323Z,0.20
2022-09-23T04:51:16.366Z,0.30
2022-09-23T04:52:18.295Z,0.25
2022-09-23T04:53:22.518Z,0.20
2022-09-23T04:54:24.475Z,0.30
2022-09-23T04:55:28.919Z,0.30
2022-09-23T04:56:32.727Z,0.32
2022-09-23T04:57:35.667Z,0.32
2022-09-23T04:58:37.847Z,0.40
2022-09-23T04:59:41.332Z,0.30
2022-09-23T05:00:43.390Z,0.40
2022-09-23T05:01:46.364Z,0.30
2022-09-23T05:02:49.803Z,0.30
2022-09-23T05:03:54.337Z,0.40
2022-09-23T05:04:56.309Z,0.30
2022-09-23T05:06:00.922Z,0.20
2022-09-23T05:07:03.575Z,0.30
2022-09-23T05:08:06.559Z,0.30
2022-09-23T05:09:08.735Z,0.20
2022-09-23T05:10:11.792Z,0.30
2022-09-23T05:11:15.354Z,0.30
2022-09-23T05:12:18.376Z,0.30
2022-09-23T05:13:20.369Z,0.20
2022-09-23T05:14:23.287Z,0.30
2022-09-23T05:15:25.393Z,0.30
2022-09-23T05:16:28.759Z,0.30
2022-09-23T05:17:31.236Z,0.30
2022-09-23T05:18:35.057Z,0.20
2022-09-23T05:19:37.950Z,0.30
2022-09-23T05:20:39.879Z,0.30
2022-09-23T05:21:43.116Z,0.30
2022-09-23T05:22:45.601Z,0.30
2022-09-23T05:23:49.802Z,0.30
2022-09-23T05:24:51.766Z,0.30
2022-09-23T05:25:59.015Z,0.30
2022-09-23T05:27:02.753Z,0.20
2022-09-23T05:28:05.620Z,0.20
2022-09-23T05:29:08.722Z,0.20
2022-09-23T05:30:11.673Z,0.25
2022-09-23T05:31:20.003Z,0.30
2022-09-23T05:32:24.530Z,0.30
2022-09-23T05:33:27.941Z,0.25
2022-09-23T05:34:32.237Z,0.20
2022-09-23T05:35:34.166Z,0.30
2022-09-23T05:36:39.167Z,0.30
2022-09-23T05:37:41.378Z,0.30
2022-09-23T05:38:44.324Z,0.30
2022-09-23T05:39:47.267Z,0.30
2022-09-23T05:40:55.756Z,0.30
2022-09-23T05:42:00.137Z,0.30
2022-09-23T05:43:03.405Z,0.30
2022-09-23T05:44:06.411Z,0.30
2022-09-23T05:45:09.145Z,0.30
2022-09-23T05:46:14.073Z,0.30
2022-09-23T05:47:16.027Z,0.30
2022-09-23T05:48:18.922Z,0.30
2022-09-23T05:49:29.551Z,0.30
2022-09-23T05:50:41.085Z,0.30
2022-09-23T05:51:42.995Z,0.30
2022-09-23T05:52:46.092Z,0.35
2022-09-23T05:53:50.248Z,0.30
2022-09-23T05:54:53.766Z,0.30
2022-09-23T05:55:56.339Z,0.30
2022-09-23T05:57:01.428Z,0.30
2022-09-23T05:58:07.994Z,0.30
2022-09-23T05:59:10.927Z,0.30
2022-09-23T06:00:13.476Z,0.30
2022-09-23T06:01:20.125Z,0.40
2022-09-23T06:02:22.706Z,0.30
2022-09-23T06:03:28.829Z,0.30
2022-09-23T06:04:31.752Z,0.30
2022-09-23T06:05:33.655Z,0.30
2022-09-23T06:06:39.242Z,0.30
2022-09-23T06:07:42.328Z,0.30
2022-09-23T06:08:44.361Z,0.30
2022-09-23T06:09:47.285Z,0.40
2022-09-23T06:10:54.406Z,0.40
2022-09-23T06:11:57.567Z,0.40
2022-09-23T06:12:59.478Z,0.40
2022-09-23T06:14:05.179Z,0.40
2022-09-23T06:15:08.269Z,0.30
2022-09-23T06:16:12.927Z,0.40
2022-09-23T06:17:14.891Z,0.40
2022-09-23T06:18:17.843Z,0.30
2022-09-23T06:19:20.329Z,0.30
2022-09-23T06:20:23.357Z,0.40
2022-09-23T06:21:25.260Z,0.30
2022-09-23T06:22:28.242Z,0.40
2022-09-23T06:23:32.005Z,0.40
2022-09-23T06:24:34.873Z,0.40
2022-09-23T06:25:38.537Z,0.40
2022-09-23T06:26:41.538Z,0.35
2022-09-23T06:27:43.406Z,0.40
2022-09-23T06:28:47.635Z,0.25
2022-09-23T06:29:52.500Z,0.35
2022-09-23T06:30:58.547Z,0.30
2022-09-23T06:32:01.885Z,0.30
2022-09-23T06:33:03.941Z,0.30
2022-09-23T06:34:11.564Z,0.30
2022-09-23T06:35:25.767Z,0.50
2022-09-23T06:36:40.521Z,0.40
2022-09-23T06:37:45.176Z,0.50
2022-09-23T06:38:49.358Z,0.32
2022-09-23T06:39:52.568Z,0.40
2022-09-23T06:40:59.538Z,0.40
2022-09-23T06:42:02.611Z,0.28
2022-09-23T06:43:04.628Z,0.30
2022-09-23T06:44:07.604Z,0.30
2022-09-23T06:45:15.562Z,0.30
2022-09-23T06:46:19.278Z,0.40
2022-09-23T06:47:21.390Z,0.40
2022-09-23T06:48:25.567Z,0.35
2022-09-23T06:49:28.504Z,0.40
2022-09-23T06:50:31.069Z,0.30
2022-09-23T06:51:34.584Z,0.30
2022-09-23T06:52:37.602Z,0.30
2022-09-23T06:53:39.572Z,0.40
2022-09-23T06:54:42.806Z,0.30
2022-09-23T06:55:45.089Z,0.30
2022-09-23T06:56:49.107Z,0.30
2022-09-23T06:57:51.401Z,0.40
2022-09-23T06:58:54.919Z,0.30
2022-09-23T06:59:58.506Z,0.30
2022-09-23T07:01:07.294Z,0.30
2022-09-23T07:02:10.922Z,0.30
2022-09-23T07:03:13.635Z,0.30
2022-09-23T07:04:16.958Z,0.30
2022-09-23T07:05:19.874Z,0.30
2022-09-23T07:06:21.879Z,0.30
2022-09-23T07:07:26.691Z,0.30
2022-09-23T07:08:30.266Z,0.30
2022-09-23T07:09:33.215Z,0.40
2022-09-23T07:10:35.651Z,0.20
2022-09-23T07:11:39.750Z,0.30
2022-09-23T07:12:42.198Z,0.30
2022-09-23T07:13:45.871Z,0.40
2022-09-23T07:14:48.102Z,0.30
2022-09-23T07:15:52.021Z,0.30
2022-09-23T07:16:56.832Z,0.30
2022-09-23T07:17:59.052Z,0.30
2022-09-23T07:19:02.514Z,0.40
2022-09-23T07:20:05.443Z,0.30
2022-09-23T07:21:10.438Z,0.22
2022-09-23T07:22:12.467Z,0.25
2022-09-23T07:23:17.772Z,0.30
2022-09-23T07:24:21.090Z,0.30
2022-09-23T07:25:23.228Z,0.30
2022-09-23T07:26:26.737Z,0.40
2022-09-23T07:27:29.142Z,0.30
2022-09-23T07:28:32.621Z,0.30
2022-09-23T07:29:45.965Z,0.30
2022-09-23T07:30:59.610Z,0.30
2022-09-23T07:32:13.323Z,0.30
2022-09-23T07:33:29.449Z,0.30
2022-09-23T07:34:34.681Z,0.30
2022-09-23T07:35:39.677Z,0.32
2022-09-23T07:36:42.874Z,0.38
2022-09-23T07:37:46.185Z,0.40
2022-09-23T07:38:49.315Z,0.40
2022-09-23T07:39:52.767Z,0.40
2022-09-23T07:40:55.336Z,0.30
2022-09-23T07:41:59.688Z,0.40
2022-09-23T07:43:02.043Z,0.30
2022-09-23T07:44:06.364Z,0.30
2022-09-23T07:45:09.815Z,0.30
2022-09-23T07:46:16.385Z,0.40
2022-09-23T07:47:20.870Z,0.40
2022-09-23T07:48:22.806Z,0.40
2022-09-23T07:49:26.103Z,0.40
2022-09-23T07:50:31.425Z,0.40
2022-09-23T07:51:38.245Z,0.30
2022-09-23T07:52:40.451Z,0.30
2022-09-23T07:53:44.158Z,0.30
2022-09-23T07:54:48.601Z,0.40
2022-09-23T07:55:54.977Z,0.30
2022-09-23T07:56:58.461Z,0.30
2022-09-23T07:58:00.373Z,0.30
2022-09-23T07:59:04.196Z,0.38
2022-09-23T08:00:08.214Z,0.40
2022-09-23T08:01:15.146Z,0.40
2022-09-23T08:02:17.178Z,0.40
2022-09-23T08:03:21.767Z,0.40
2022-09-23T08:04:27.920Z,0.40
2022-09-23T08:05:30.086Z,0.40
2022-09-23T08:06:34.405Z,0.32
2022-09-23T08:07:36.777Z,0.40
2022-09-23T08:08:43.380Z,0.30
2022-09-23T08:09:45.833Z,0.35
2022-09-23T08:10:48.828Z,0.40
2022-09-23T08:11:52.775Z,0.35
2022-09-23T08:12:55.667Z,0.40
2022-09-23T08:13:57.583Z,0.30
2022-09-23T08:15:00.913Z,0.30
2022-09-23T08:16:03.624Z,0.30
2022-09-23T08:17:07.219Z,0.30
2022-09-23T08:18:09.463Z,0.40
2022-09-23T08:19:14.773Z,0.30
2022-09-23T08:20:32.164Z,0.30
2022-09-23T08:21:37.646Z,0.30
2022-09-23T08:22:39.929Z,0.30
2022-09-23T08:23:42.909Z,0.40
2022-09-23T08:24:46.232Z,0.30
2022-09-23T08:25:48.814Z,0.40
2022-09-23T08:26:54.058Z,0.30
2022-09-23T08:27:57.161Z,0.40
2022-09-23T08:29:00.688Z,0.40
2022-09-23T08:30:02.746Z,0.40
2022-09-23T08:31:06.291Z,0.40
2022-09-23T08:32:09.799Z,0.40
2022-09-23T08:33:12.401Z,0.40
2022-09-23T08:34:17.493Z,0.30
2022-09-23T08:35:20.540Z,0.30
2022-09-23T08:36:24.500Z,0.30
2022-09-23T08:37:26.587Z,0.40
2022-09-23T08:38:30.673Z,0.40
2022-09-23T08:39:34.541Z,0.40
2022-09-23T08:40:40.460Z,0.40
2022-09-23T08:41:56.100Z,0.40
2022-09-23T08:43:00.239Z,0.40
2022-09-23T08:44:05.951Z,0.30
2022-09-23T08:45:16.604Z,0.40
2022-09-23T08:46:25.481Z,0.38
2022-09-23T08:47:36.806Z,0.30
2022-09-23T08:48:45.361Z,0.30
2022-09-23T08:50:00.205Z,0.30
2022-09-23T08:51:07.156Z,0.30
2022-09-23T08:52:16.745Z,0.30
2022-09-23T08:53:29.063Z,0.40
2022-09-23T08:54:31.798Z,0.40
2022-09-23T08:55:41.398Z,0.30
2022-09-23T08:56:49.255Z,0.40
2022-09-23T08:58:24.376Z,0.40
2022-09-23T08:59:36.974Z,0.40
2022-09-23T09:00:43.304Z,0.30
2022-09-23T09:01:51.773Z,0.30
2022-09-23T09:02:55.189Z,0.30
2022-09-23T09:04:02.462Z,0.30
2022-09-23T09:05:11.801Z,0.30
2022-09-23T09:06:20.594Z,0.30
2022-09-23T09:07:36.646Z,0.40
2022-09-23T09:08:42.109Z,0.40
2022-09-23T09:09:52.272Z,0.35
2022-09-23T09:10:58.121Z,0.40
2022-09-23T09:12:05.950Z,0.40
2022-09-23T09:13:24.054Z,0.40
2022-09-23T09:14:35.688Z,0.40
2022-09-23T09:15:47.548Z,0.30
2022-09-23T09:17:01.685Z,0.40
2022-09-23T09:18:08.025Z,0.32
2022-09-23T09:19:17.237Z,0.30
2022-09-23T09:20:35.361Z,0.30
2022-09-23T09:21:42.644Z,0.30
2022-09-23T09:23:01.041Z,0.30
2022-09-23T09:24:12.972Z,0.30
2022-09-23T09:25:25.062Z,0.30
2022-09-23T09:26:32.021Z,0.30
2022-09-23T09:27:40.402Z,0.40
2022-09-23T09:28:49.151Z,0.32
2022-09-23T09:29:54.933Z,0.40
2022-09-23T09:31:02.761Z,0.40
2022-09-23T09:32:19.863Z,0.30
2022-09-23T09:33:30.057Z,0.40
2022-09-23T09:35:53.485Z,0.40
2022-09-23T09:37:07.279Z,0.30
2022-09-23T09:38:10.925Z,0.40
2022-09-23T09:39:15.885Z,0.40
2022-09-23T09:40:18.056Z,0.45
2022-09-23T09:41:21.503Z,0.40
2022-09-23T09:42:28.448Z,0.40
2022-09-23T09:43:32.417Z,0.40
2022-09-23T09:44:42.918Z,0.40
2022-09-23T09:47:17.849Z,0.30
2022-09-23T09:48:27.366Z,0.40
2022-09-23T09:49:39.533Z,0.40
2022-09-23T09:50:49.131Z,0.40
2022-09-23T09:52:13.677Z,0.30
2022-09-23T09:53:24.713Z,0.40
2022-09-23T09:54:27.058Z,0.30
2022-09-23T09:55:30.809Z,0.30
2022-09-23T09:56:35.127Z,0.40
2022-09-23T09:57:40.909Z,0.30
2022-09-23T09:58:48.193Z,0.30
2022-09-23T09:59:51.781Z,0.38
2022-09-23T10:00:55.563Z,0.45
2022-09-23T10:02:14.839Z,0.40
2022-09-23T10:03:31.295Z,0.50
2022-09-23T10:04:35.858Z,0.40
2022-09-23T10:05:52.335Z,0.30
2022-09-23T10:07:07.348Z,0.30
2022-09-23T10:08:26.598Z,0.40
2022-09-23T10:09:34.842Z,0.40
2022-09-23T10:10:36.951Z,0.40
2022-09-23T10:11:41.502Z,0.30
2022-09-23T10:12:46.780Z,0.30
2022-09-23T10:14:06.064Z,0.30
2022-09-23T10:15:28.621Z,0.40
2022-09-23T10:16:32.186Z,0.40
2022-09-23T10:17:36.679Z,0.40
2022-09-23T10:18:51.026Z,0.40
2022-09-23T10:20:00.279Z,0.40
2022-09-23T10:21:08.496Z,0.50
2022-09-23T10:22:20.616Z,0.40
2022-09-23T10:23:27.845Z,0.40
2022-09-23T10:24:34.260Z,0.30
2022-09-23T10:25:36.913Z,0.40
2022-09-23T10:26:44.664Z,0.40
2022-09-23T10:27:47.835Z,0.40
2022-09-23T10:28:51.370Z,0.40
2022-09-23T10:29:57.833Z,0.40
2022-09-23T10:31:09.974Z,0.30
2022-09-23T10:32:29.208Z,0.30
2022-09-23T10:33:31.929Z,0.40
2022-09-23T10:34:35.927Z,0.40
2022-09-23T10:35:57.376Z,0.40
2022-09-23T10:37:08.716Z,0.40
2022-09-23T10:38:12.773Z,0.40
2022-09-23T10:39:33.348Z,0.40
2022-09-23T10:40:57.241Z,0.40
2022-09-23T10:42:35.632Z,0.47
2022-09-23T10:44:12.939Z,0.40
2022-09-23T10:45:44.009Z,0.45
2022-09-23T10:46:57.868Z,0.40
2022-09-23T10:48:06.452Z,0.40
2022-09-23T10:49:34.794Z,0.40
2022-09-23T10:50:43.196Z,0.40
2022-09-23T10:51:56.085Z,0.30
2022-09-23T10:53:11.550Z,0.40
2022-09-23T10:54:25.670Z,0.40
2022-09-23T10:55:50.686Z,0.40
2022-09-23T10:57:00.911Z,0.32
2022-09-23T10:58:20.710Z,0.40
2022-09-23T10:59:43.570Z,0.50
2022-09-23T11:00:56.291Z,0.40
2022-09-23T11:02:12.842Z,0.47
2022-09-23T11:03:35.045Z,0.40
2022-09-23T11:05:05.667Z,0.40
2022-09-23T11:06:19.038Z,0.50
2022-09-23T11:07:28.392Z,0.40
2022-09-23T11:08:49.203Z,0.50
2022-09-23T11:10:14.550Z,0.40
2022-09-23T11:11:41.205Z,0.40
2022-09-23T11:12:54.150Z,0.47
2022-09-23T11:14:16.952Z,0.50
2022-09-23T11:15:32.116Z,0.40
2022-09-23T11:16:47.187Z,0.40
2022-09-23T11:18:16.685Z,0.43
2022-09-23T11:19:36.893Z,0.40
2022-09-23T11:20:55.610Z,0.40
2022-09-23T11:22:16.047Z,0.40
2022-09-23T11:23:43.976Z,0.40
2022-09-23T11:25:07.101Z,0.40
2022-09-23T11:26:23.422Z,0.50
2022-09-23T11:27:45.271Z,0.45
2022-09-23T11:29:11.510Z,0.40
2022-09-23T11:30:17.523Z,0.40
2022-09-23T11:31:33.011Z,0.50
2022-09-23T11:33:05.309Z,0.50
2022-09-23T11:34:27.962Z,0.50
2022-09-23T11:35:36.068Z,0.50
2022-09-23T11:36:42.603Z,0.50
2022-09-23T11:37:49.668Z,0.50
2022-09-23T11:38:56.919Z,0.50
2022-09-23T11:40:03.424Z,0.40
2022-09-23T11:41:17.475Z,0.50
2022-09-23T11:42:25.223Z,0.43
2022-09-23T11:43:31.308Z,0.40
2022-09-23T11:44:39.145Z,0.40
2022-09-23T11:45:46.866Z,0.40
2022-09-23T11:46:55.555Z,0.40
2022-09-23T11:48:01.544Z,0.40
2022-09-23T11:49:10.780Z,0.40
2022-09-23T11:50:20.706Z,0.40
2022-09-23T11:51:29.972Z,0.40
2022-09-23T11:52:35.820Z,0.40
2022-09-23T11:53:45.421Z,0.50
2022-09-23T11:54:52.878Z,0.50
2022-09-23T11:56:03.520Z,0.40
2022-09-23T11:57:13.130Z,0.30
2022-09-23T11:58:25.261Z,0.40
2022-09-23T11:59:40.941Z,0.32
2022-09-23T12:00:53.513Z,0.40
2022-09-23T12:02:17.380Z,0.40
2022-09-23T12:03:40.837Z,0.40
2022-09-23T12:04:56.929Z,0.40
2022-09-23T12:06:05.203Z,0.40
2022-09-23T12:07:13.888Z,0.50
2022-09-23T12:08:26.706Z,0.40
2022-09-23T12:09:57.280Z,0.40
2022-09-23T12:11:09.593Z,0.40
2022-09-23T12:12:22.924Z,0.40
2022-09-23T12:13:40.578Z,0.30
2022-09-23T12:14:55.469Z,0.50
2022-09-23T12:16:28.047Z,0.40
2022-09-23T12:17:46.615Z,0.40
2022-09-23T12:19:02.673Z,0.40
2022-09-23T12:20:25.452Z,0.40
2022-09-23T12:22:08.060Z,0.40
2022-09-23T12:23:24.708Z,0.40
2022-09-23T12:24:48.162Z,0.50
2022-09-23T12:25:54.851Z,0.40
2022-09-23T12:27:06.076Z,0.47
2022-09-23T12:28:16.375Z,0.40
2022-09-23T12:29:19.208Z,0.50
2022-09-23T12:30:24.659Z,0.40
2022-09-23T12:31:33.063Z,0.40
2022-09-23T12:33:41.408Z,0.40
2022-09-23T12:34:49.246Z,0.40
2022-09-23T12:35:54.422Z,0.50
2022-09-23T12:37:03.120Z,0.40
2022-09-23T12:38:26.617Z,0.40
2022-09-23T12:39:33.020Z,0.40
2022-09-23T12:40:38.925Z,0.40
2022-09-23T12:41:49.213Z,0.43
2022-09-23T12:42:53.743Z,0.40
2022-09-23T12:44:02.876Z,0.40
2022-09-23T12:45:39.485Z,0.50
2022-09-23T12:46:43.408Z,0.40
2022-09-23T12:47:46.602Z,0.40
2022-09-23T12:49:01.254Z,0.40
2022-09-23T12:50:52.635Z,0.40
2022-09-23T12:52:15.537Z,0.40
2022-09-23T12:53:55.417Z,0.40
2022-09-23T12:55:08.258Z,0.40
2022-09-23T12:56:17.052Z,0.30
2022-09-23T12:57:43.960Z,0.40
2022-09-23T12:59:13.968Z,0.40
2022-09-23T13:00:26.910Z,0.40
2022-09-23T13:01:37.940Z,0.40
2022-09-23T13:02:44.435Z,0.38
2022-09-23T13:04:06.273Z,0.38
2022-09-23T13:05:39.137Z,0.30
2022-09-23T13:06:46.685Z,0.50
2022-09-23T13:07:51.019Z,0.40
2022-09-23T13:08:54.392Z,0.50
2022-09-23T13:10:07.048Z,0.40
2022-09-23T13:11:23.114Z,0.30
2022-09-23T13:12:31.343Z,0.40
2022-09-23T13:13:37.498Z,0.40
2022-09-23T13:14:45.135Z,0.30
2022-09-23T13:15:51.780Z,0.30
2022-09-23T13:16:53.847Z,0.35
2022-09-23T13:18:41.633Z,0.40
2022-09-23T13:19:47.465Z,0.40
2022-09-23T13:20:51.812Z,0.40
2022-09-23T13:22:03.440Z,0.40
2022-09-23T13:23:26.999Z,0.40
2022-09-23T13:24:41.317Z,0.50
2022-09-23T13:25:45.116Z,0.40
2022-09-23T13:26:48.877Z,0.40
2022-09-23T13:27:55.551Z,0.40
2022-09-23T13:29:00.264Z,0.40
2022-09-23T13:30:07.816Z,0.40
2022-09-23T13:31:17.108Z,0.40
2022-09-23T13:32:21.276Z,0.40
2022-09-23T13:33:31.860Z,0.40
2022-09-23T13:34:38.532Z,0.40
2022-09-23T13:35:45.421Z,0.40
2022-09-23T13:36:48.601Z,0.50
2022-09-23T13:37:51.878Z,0.35
2022-09-23T13:38:54.835Z,0.40
2022-09-23T13:40:07.917Z,0.40
2022-09-23T13:41:16.183Z,0.40
2022-09-23T13:42:27.138Z,0.40
2022-09-23T13:43:37.585Z,0.30
2022-09-23T13:44:43.415Z,0.40
2022-09-23T13:45:47.729Z,0.32
2022-09-23T13:46:51.944Z,0.40
2022-09-23T13:48:01.155Z,0.50
2022-09-23T13:49:03.232Z,0.40
2022-09-23T13:50:07.151Z,0.40
2022-09-23T13:51:11.476Z,0.50
2022-09-23T13:52:25.793Z,0.50
2022-09-23T13:53:32.370Z,0.40
2022-09-23T13:54:47.113Z,0.40
2022-09-23T13:56:01.684Z,0.50
2022-09-23T13:57:05.551Z,0.40
2022-09-23T13:58:17.285Z,0.40
2022-09-23T13:59:26.278Z,0.40
2022-09-23T14:00:35.207Z,0.40
2022-09-23T14:01:39.516Z,0.40
2022-09-23T14:02:43.097Z,0.40
2022-09-23T14:03:46.027Z,0.40
2022-09-23T14:04:47.942Z,0.40
2022-09-23T14:05:52.238Z,0.50
2022-09-23T14:06:54.829Z,0.40
2022-09-23T14:07:58.285Z,0.47
2022-09-23T14:09:02.698Z,0.45
2022-09-23T14:10:06.591Z,0.50
2022-09-23T14:11:15.496Z,0.50
2022-09-23T14:12:21.996Z,0.50
2022-09-23T14:13:27.898Z,0.40
2022-09-23T14:14:31.578Z,0.40
2022-09-23T14:15:37.416Z,0.40
2022-09-23T14:16:43.652Z,0.50
2022-09-23T14:17:47.905Z,0.40
2022-09-23T14:18:53.107Z,0.50
2022-09-23T14:19:55.057Z,0.50
2022-09-23T14:20:58.244Z,0.50
2022-09-23T14:22:01.356Z,0.40
2022-09-23T14:23:05.831Z,0.40
2022-09-23T14:24:17.293Z,0.50
2022-09-23T14:25:20.714Z,0.50
2022-09-23T14:26:24.190Z,0.40
2022-09-23T14:27:30.956Z,0.50
2022-09-23T14:28:34.677Z,0.40
2022-09-23T14:29:40.037Z,0.50
2022-09-23T14:30:46.110Z,0.50
2022-09-23T14:31:58.106Z,0.50
2022-09-23T14:33:04.406Z,0.50
2022-09-23T14:34:44.340Z,0.50
2022-09-23T14:35:49.777Z,0.40
2022-09-23T14:37:12.406Z,0.50
2022-09-23T14:38:40.510Z,0.50
2022-09-23T14:39:43.781Z,0.50
2022-09-23T14:40:54.578Z,0.40
2022-09-23T14:41:57.536Z,0.50
2022-09-23T14:43:04.616Z,0.50
2022-09-23T14:44:09.001Z,0.50
2022-09-23T14:45:15.915Z,0.50
2022-09-23T14:46:21.252Z,0.50
2022-09-23T14:47:25.114Z,0.40
2022-09-23T14:48:31.301Z,0.45
2022-09-23T14:49:34.254Z,0.40
2022-09-23T14:50:36.975Z,0.50
2022-09-23T14:51:48.123Z,0.50
2022-09-23T14:52:50.143Z,0.60
2022-09-23T14:53:53.076Z,0.50
2022-09-23T14:54:55.051Z,0.52
2022-09-23T14:56:10.926Z,0.50
2022-09-23T14:57:27.058Z,0.50
2022-09-23T14:58:29.444Z,0.50
2022-09-23T14:59:35.997Z,0.50
2022-09-23T15:00:38.073Z,0.50
2022-09-23T15:01:41.019Z,0.50
2022-09-23T15:02:46.064Z,0.50
2022-09-23T15:03:48.965Z,0.50
2022-09-23T15:04:54.634Z,0.50
2022-09-23T15:05:59.878Z,0.50
2022-09-23T15:07:15.704Z,0.55
2022-09-23T15:08:20.944Z,0.50
2022-09-23T15:09:26.736Z,0.50
2022-09-23T15:10:32.916Z,0.60
2022-09-23T15:11:36.000Z,0.50
2022-09-23T15:12:39.537Z,0.50